チューリッヒ の空港の天気 - METARとTAF

チューリヒ国際空港 ( LSZH / ZRH ) - スイス チューリッヒ
飛行場実況気象(Metar)
観測時間07/16 08:20 CEST (07/16 06:20 UTC)
風向・風速不定 1m/s
視程10km以上
天気現象
なし
気温18℃
湿度73%
気圧1016hPa
METARLSZH 160620Z VRB01KT CAVOK 18/13 Q1016 NOSIG
過去の天気等 Google飛行場航空写真 Wunderground天気予報

過去48時間のMETAR

飛行場予報(TAF)
発表時間: 7/16 07:25 CEST (7/16 05:25 UTC)
予報対象時間: 16日8時 CEST ~ 17日14時 CEST
風向・風速不定 2m/s
視程10km以上
なし
16日10時 CEST ~ 16日12時 CEST に徐々に
視程10km以上
少しの雲 雲底高度 1830m
16日16時 CEST ~ 16日20時 CEST に 確率 40% で一時的に
風向・風速北北西 6m/s
天気現象しゅう雨
全天の4割程度の塔状積雲 雲底高度 1830m
16日16時 CEST ~ 16日19時 CEST に 確率 30% で一時的に
風向・風速北北西 8m/s 瞬間風速 15m/s
天気現象雷雨
全天の4割程度の積乱雲 雲底高度 1830m
16日23時 CEST ~ 17日6時 CEST に一時的に
視程10km以上
なし
17日10時 CEST ~ 17日14時 CEST に 確率 40% で一時的に
風向・風速西 6m/s
天気現象しゅう雨
全天の4割程度の塔状積雲 雲底高度 1520m
TAF LSZH 160525Z 1606/1712 VRB03KT CAVOK TX29/1615Z TN17/1606Z TN15/1704Z
BECMG 1608/1610 9999 FEW060
PROB40 TEMPO 1614/1618 34012KT SHRA SCT060TCU
PROB30 TEMPO 1614/1617 33015G30KT TSRA SCT060CB
TEMPO 1621/1704 CAVOK
PROB40 TEMPO 1708/1712 28012KT SHRA SCT050TCU